<?xml version="1.0" encoding="UTF-8" standalone="no" ?>
<gpx xmlns="http://www.topografix.com/GPX/1/1" xmlns:xsi="http://www.w3.org/2001/XMLSchema-instance" xsi:schemaLocation="http://www.topografix.com/GPX/1/1 http://www.topografix.com/GPX/1/1/gpx.xsd" version="1.1" creator="VisuGPX - https://www.visugpx.com">
  <metadata>
    <name>Tournon d'Agenais 10.01 km</name>
    <desc><![CDATA[Tournon d'Agenais]]></desc>
  </metadata>
  <trk>
    <name><![CDATA[2025 07 17 Tournon d'Agenais 10 km Pierre]]></name>
    <extensions>
      <line xmlns="http://www.topografix.com/GPX/gpx_style/0/2">
        <color>0000FF</color>
        <width>4</width>
      </line>
    </extensions>
    <trkseg>
      <trkpt lat="44.40169" lon="0.99752">
        <ele>168.9</ele>
        <time>2025-07-17T07:09:32.072Z</time>
      </trkpt>
      <trkpt lat="44.40159" lon="0.99773">
        <ele>193</ele>
        <time>2025-07-17T07:09:36.071Z</time>
      </trkpt>
      <trkpt lat="44.40155" lon="0.99773">
        <ele>184</ele>
        <time>2025-07-17T07:09:41.071Z</time>
      </trkpt>
      <trkpt lat="44.40149" lon="0.99784">
        <ele>164</ele>
        <time>2025-07-17T07:09:57.071Z</time>
      </trkpt>
      <trkpt lat="44.40163" lon="0.99854">
        <ele>154</ele>
        <time>2025-07-17T07:10:53.071Z</time>
      </trkpt>
      <trkpt lat="44.40169" lon="0.99867">
        <ele>155</ele>
        <time>2025-07-17T07:11:01.071Z</time>
      </trkpt>
      <trkpt lat="44.40175" lon="0.99891">
        <ele>156</ele>
        <time>2025-07-17T07:11:17.072Z</time>
      </trkpt>
      <trkpt lat="44.4019" lon="0.99932">
        <ele>150</ele>
        <time>2025-07-17T07:11:49.071Z</time>
      </trkpt>
      <trkpt lat="44.40199" lon="0.99946">
        <ele>152</ele>
        <time>2025-07-17T07:12:01.071Z</time>
      </trkpt>
      <trkpt lat="44.40207" lon="0.9995">
        <ele>157</ele>
        <time>2025-07-17T07:12:09.072Z</time>
      </trkpt>
      <trkpt lat="44.40223" lon="0.99967">
        <ele>163</ele>
        <time>2025-07-17T07:12:25.072Z</time>
      </trkpt>
      <trkpt lat="44.40259" lon="0.99998">
        <ele>167</ele>
        <time>2025-07-17T07:12:57.072Z</time>
      </trkpt>
      <trkpt lat="44.40273" lon="1.00015">
        <ele>166</ele>
        <time>2025-07-17T07:13:13.071Z</time>
      </trkpt>
      <trkpt lat="44.40304" lon="1.0004">
        <ele>164</ele>
        <time>2025-07-17T07:13:45.072Z</time>
      </trkpt>
      <trkpt lat="44.40332" lon="1.00059">
        <ele>169</ele>
        <time>2025-07-17T07:14:13.071Z</time>
      </trkpt>
      <trkpt lat="44.40348" lon="1.00077">
        <ele>165</ele>
        <time>2025-07-17T07:14:29.071Z</time>
      </trkpt>
      <trkpt lat="44.4038" lon="1.00103">
        <ele>165</ele>
        <time>2025-07-17T07:15:01.072Z</time>
      </trkpt>
      <trkpt lat="44.40434" lon="1.00136">
        <ele>160</ele>
        <time>2025-07-17T07:15:49.071Z</time>
      </trkpt>
      <trkpt lat="44.4049" lon="1.00161">
        <ele>153</ele>
        <time>2025-07-17T07:16:37.071Z</time>
      </trkpt>
      <trkpt lat="44.40537" lon="1.00194">
        <ele>152</ele>
        <time>2025-07-17T07:17:19.072Z</time>
      </trkpt>
      <trkpt lat="44.40543" lon="1.00194">
        <ele>152</ele>
        <time>2025-07-17T07:17:23.072Z</time>
      </trkpt>
      <trkpt lat="44.40577" lon="1.00254">
        <ele>156</ele>
        <time>2025-07-17T07:18:11.071Z</time>
      </trkpt>
      <trkpt lat="44.40592" lon="1.00271">
        <ele>153</ele>
        <time>2025-07-17T07:18:27.072Z</time>
      </trkpt>
      <trkpt lat="44.40597" lon="1.00282">
        <ele>157</ele>
        <time>2025-07-17T07:18:35.072Z</time>
      </trkpt>
      <trkpt lat="44.40603" lon="1.00291">
        <ele>157</ele>
        <time>2025-07-17T07:18:43.071Z</time>
      </trkpt>
      <trkpt lat="44.40613" lon="1.00314">
        <ele>157</ele>
        <time>2025-07-17T07:18:59.072Z</time>
      </trkpt>
      <trkpt lat="44.40627" lon="1.00336">
        <ele>157</ele>
        <time>2025-07-17T07:19:15.072Z</time>
      </trkpt>
      <trkpt lat="44.40634" lon="1.00362">
        <ele>154</ele>
        <time>2025-07-17T07:19:31.071Z</time>
      </trkpt>
      <trkpt lat="44.40638" lon="1.00384">
        <ele>154</ele>
        <time>2025-07-17T07:19:47.071Z</time>
      </trkpt>
      <trkpt lat="44.40653" lon="1.00408">
        <ele>154</ele>
        <time>2025-07-17T07:20:03.072Z</time>
      </trkpt>
      <trkpt lat="44.40665" lon="1.00432">
        <ele>152</ele>
        <time>2025-07-17T07:20:19.072Z</time>
      </trkpt>
      <trkpt lat="44.40671" lon="1.00474">
        <ele>155</ele>
        <time>2025-07-17T07:20:47.072Z</time>
      </trkpt>
      <trkpt lat="44.40676" lon="1.00571">
        <ele>155</ele>
        <time>2025-07-17T07:21:51.072Z</time>
      </trkpt>
      <trkpt lat="44.40676" lon="1.00648">
        <ele>150</ele>
        <time>2025-07-17T07:22:31.072Z</time>
      </trkpt>
      <trkpt lat="44.40684" lon="1.00681">
        <ele>151</ele>
        <time>2025-07-17T07:22:47.071Z</time>
      </trkpt>
      <trkpt lat="44.40695" lon="1.00705">
        <ele>146</ele>
        <time>2025-07-17T07:23:03.072Z</time>
      </trkpt>
      <trkpt lat="44.40704" lon="1.00717">
        <ele>146</ele>
        <time>2025-07-17T07:23:15.072Z</time>
      </trkpt>
      <trkpt lat="44.40706" lon="1.00725">
        <ele>146</ele>
        <time>2025-07-17T07:23:19.072Z</time>
      </trkpt>
      <trkpt lat="44.40702" lon="1.00739">
        <ele>150</ele>
        <time>2025-07-17T07:23:27.072Z</time>
      </trkpt>
      <trkpt lat="44.40683" lon="1.00775">
        <ele>149</ele>
        <time>2025-07-17T07:23:59.072Z</time>
      </trkpt>
      <trkpt lat="44.40674" lon="1.00793">
        <ele>152</ele>
        <time>2025-07-17T07:24:19.071Z</time>
      </trkpt>
      <trkpt lat="44.40672" lon="1.00816">
        <ele>152</ele>
        <time>2025-07-17T07:24:35.071Z</time>
      </trkpt>
      <trkpt lat="44.40687" lon="1.00859">
        <ele>155</ele>
        <time>2025-07-17T07:25:19.072Z</time>
      </trkpt>
      <trkpt lat="44.40686" lon="1.00897">
        <ele>157</ele>
        <time>2025-07-17T07:25:43.071Z</time>
      </trkpt>
      <trkpt lat="44.40689" lon="1.00902">
        <ele>157</ele>
        <time>2025-07-17T07:25:47.071Z</time>
      </trkpt>
      <trkpt lat="44.40679" lon="1.00996">
        <ele>156</ele>
        <time>2025-07-17T07:26:51.072Z</time>
      </trkpt>
      <trkpt lat="44.40681" lon="1.01023">
        <ele>155</ele>
        <time>2025-07-17T07:27:07.072Z</time>
      </trkpt>
      <trkpt lat="44.40685" lon="1.01046">
        <ele>157</ele>
        <time>2025-07-17T07:27:23.072Z</time>
      </trkpt>
      <trkpt lat="44.40693" lon="1.01067">
        <ele>158</ele>
        <time>2025-07-17T07:27:39.071Z</time>
      </trkpt>
      <trkpt lat="44.40705" lon="1.01088">
        <ele>157</ele>
        <time>2025-07-17T07:27:55.071Z</time>
      </trkpt>
      <trkpt lat="44.40734" lon="1.01175">
        <ele>156</ele>
        <time>2025-07-17T07:28:59.071Z</time>
      </trkpt>
      <trkpt lat="44.40738" lon="1.012">
        <ele>152</ele>
        <time>2025-07-17T07:29:15.071Z</time>
      </trkpt>
      <trkpt lat="44.40753" lon="1.0124">
        <ele>148</ele>
        <time>2025-07-17T07:29:47.071Z</time>
      </trkpt>
      <trkpt lat="44.40778" lon="1.0139">
        <ele>153</ele>
        <time>2025-07-17T07:31:23.071Z</time>
      </trkpt>
      <trkpt lat="44.4078" lon="1.01424">
        <ele>151</ele>
        <time>2025-07-17T07:31:47.071Z</time>
      </trkpt>
      <trkpt lat="44.40783" lon="1.01436">
        <ele>153</ele>
        <time>2025-07-17T07:32:03.072Z</time>
      </trkpt>
      <trkpt lat="44.40785" lon="1.01458">
        <ele>153</ele>
        <time>2025-07-17T07:32:27.072Z</time>
      </trkpt>
      <trkpt lat="44.40804" lon="1.01511">
        <ele>157</ele>
        <time>2025-07-17T07:33:23.071Z</time>
      </trkpt>
      <trkpt lat="44.40818" lon="1.0154">
        <ele>162</ele>
        <time>2025-07-17T07:33:51.071Z</time>
      </trkpt>
      <trkpt lat="44.40824" lon="1.01559">
        <ele>166</ele>
        <time>2025-07-17T07:34:07.072Z</time>
      </trkpt>
      <trkpt lat="44.40836" lon="1.01577">
        <ele>166</ele>
        <time>2025-07-17T07:34:19.071Z</time>
      </trkpt>
      <trkpt lat="44.40849" lon="1.01596">
        <ele>167</ele>
        <time>2025-07-17T07:34:39.071Z</time>
      </trkpt>
      <trkpt lat="44.40856" lon="1.01607">
        <ele>166</ele>
        <time>2025-07-17T07:34:47.071Z</time>
      </trkpt>
      <trkpt lat="44.40868" lon="1.01618">
        <ele>166</ele>
        <time>2025-07-17T07:34:59.071Z</time>
      </trkpt>
      <trkpt lat="44.40882" lon="1.01638">
        <ele>166</ele>
        <time>2025-07-17T07:35:15.071Z</time>
      </trkpt>
      <trkpt lat="44.40888" lon="1.01642">
        <ele>167</ele>
        <time>2025-07-17T07:35:23.071Z</time>
      </trkpt>
      <trkpt lat="44.40894" lon="1.0165">
        <ele>168</ele>
        <time>2025-07-17T07:35:31.072Z</time>
      </trkpt>
      <trkpt lat="44.40901" lon="1.01657">
        <ele>167</ele>
        <time>2025-07-17T07:35:41.071Z</time>
      </trkpt>
      <trkpt lat="44.40917" lon="1.01665">
        <ele>171</ele>
        <time>2025-07-17T07:35:59.072Z</time>
      </trkpt>
      <trkpt lat="44.40934" lon="1.01682">
        <ele>173</ele>
        <time>2025-07-17T07:36:27.072Z</time>
      </trkpt>
      <trkpt lat="44.4093" lon="1.01697">
        <ele>178</ele>
        <time>2025-07-17T07:37:15.072Z</time>
      </trkpt>
      <trkpt lat="44.40926" lon="1.01737">
        <ele>176</ele>
        <time>2025-07-17T07:39:07.071Z</time>
      </trkpt>
      <trkpt lat="44.40919" lon="1.01763">
        <ele>179</ele>
        <time>2025-07-17T07:39:27.072Z</time>
      </trkpt>
      <trkpt lat="44.40901" lon="1.01796">
        <ele>179</ele>
        <time>2025-07-17T07:39:47.071Z</time>
      </trkpt>
      <trkpt lat="44.40896" lon="1.01812">
        <ele>182</ele>
        <time>2025-07-17T07:39:59.071Z</time>
      </trkpt>
      <trkpt lat="44.40887" lon="1.01817">
        <ele>180</ele>
        <time>2025-07-17T07:40:07.071Z</time>
      </trkpt>
      <trkpt lat="44.40873" lon="1.01835">
        <ele>179</ele>
        <time>2025-07-17T07:40:27.071Z</time>
      </trkpt>
      <trkpt lat="44.40868" lon="1.01836">
        <ele>182</ele>
        <time>2025-07-17T07:40:31.071Z</time>
      </trkpt>
      <trkpt lat="44.40866" lon="1.01843">
        <ele>185</ele>
        <time>2025-07-17T07:40:35.071Z</time>
      </trkpt>
      <trkpt lat="44.40852" lon="1.01858">
        <ele>190</ele>
        <time>2025-07-17T07:40:51.072Z</time>
      </trkpt>
      <trkpt lat="44.4084" lon="1.01876">
        <ele>191</ele>
        <time>2025-07-17T07:41:07.072Z</time>
      </trkpt>
      <trkpt lat="44.40806" lon="1.01961">
        <ele>187</ele>
        <time>2025-07-17T07:42:15.071Z</time>
      </trkpt>
      <trkpt lat="44.40779" lon="1.02043">
        <ele>184</ele>
        <time>2025-07-17T07:45:11.071Z</time>
      </trkpt>
      <trkpt lat="44.4077" lon="1.02068">
        <ele>181</ele>
        <time>2025-07-17T07:45:27.071Z</time>
      </trkpt>
      <trkpt lat="44.40759" lon="1.02119">
        <ele>182</ele>
        <time>2025-07-17T07:45:59.071Z</time>
      </trkpt>
      <trkpt lat="44.4074" lon="1.02171">
        <ele>180</ele>
        <time>2025-07-17T07:46:31.071Z</time>
      </trkpt>
      <trkpt lat="44.40634" lon="1.02403">
        <ele>185</ele>
        <time>2025-07-17T07:49:11.071Z</time>
      </trkpt>
      <trkpt lat="44.40624" lon="1.0242">
        <ele>188</ele>
        <time>2025-07-17T07:49:27.072Z</time>
      </trkpt>
      <trkpt lat="44.40614" lon="1.02448">
        <ele>187</ele>
        <time>2025-07-17T07:49:59.071Z</time>
      </trkpt>
      <trkpt lat="44.40583" lon="1.02521">
        <ele>188</ele>
        <time>2025-07-17T07:50:51.071Z</time>
      </trkpt>
      <trkpt lat="44.40579" lon="1.02523">
        <ele>188</ele>
        <time>2025-07-17T07:50:55.072Z</time>
      </trkpt>
      <trkpt lat="44.40561" lon="1.02522">
        <ele>189</ele>
        <time>2025-07-17T07:51:11.071Z</time>
      </trkpt>
      <trkpt lat="44.40548" lon="1.02522">
        <ele>190</ele>
        <time>2025-07-17T07:51:21.071Z</time>
      </trkpt>
      <trkpt lat="44.40537" lon="1.02523">
        <ele>190</ele>
        <time>2025-07-17T07:51:29.071Z</time>
      </trkpt>
      <trkpt lat="44.40529" lon="1.02529">
        <ele>189</ele>
        <time>2025-07-17T07:51:37.072Z</time>
      </trkpt>
      <trkpt lat="44.40519" lon="1.02534">
        <ele>190</ele>
        <time>2025-07-17T07:51:45.071Z</time>
      </trkpt>
      <trkpt lat="44.40515" lon="1.02538">
        <ele>189</ele>
        <time>2025-07-17T07:51:49.072Z</time>
      </trkpt>
      <trkpt lat="44.40494" lon="1.02545">
        <ele>185</ele>
        <time>2025-07-17T07:52:09.071Z</time>
      </trkpt>
      <trkpt lat="44.40472" lon="1.02541">
        <ele>183</ele>
        <time>2025-07-17T07:52:29.071Z</time>
      </trkpt>
      <trkpt lat="44.40466" lon="1.02529">
        <ele>184</ele>
        <time>2025-07-17T07:52:37.071Z</time>
      </trkpt>
      <trkpt lat="44.40466" lon="1.02521">
        <ele>183</ele>
        <time>2025-07-17T07:52:41.071Z</time>
      </trkpt>
      <trkpt lat="44.40468" lon="1.02513">
        <ele>181</ele>
        <time>2025-07-17T07:52:45.071Z</time>
      </trkpt>
      <trkpt lat="44.40463" lon="1.02461">
        <ele>191</ele>
        <time>2025-07-17T07:53:17.071Z</time>
      </trkpt>
      <trkpt lat="44.40466" lon="1.0243">
        <ele>180</ele>
        <time>2025-07-17T07:53:41.071Z</time>
      </trkpt>
      <trkpt lat="44.4046" lon="1.02408">
        <ele>172</ele>
        <time>2025-07-17T07:53:57.072Z</time>
      </trkpt>
      <trkpt lat="44.40437" lon="1.02358">
        <ele>168</ele>
        <time>2025-07-17T07:54:37.071Z</time>
      </trkpt>
      <trkpt lat="44.40414" lon="1.02317">
        <ele>169</ele>
        <time>2025-07-17T07:55:09.072Z</time>
      </trkpt>
      <trkpt lat="44.40317" lon="1.02195">
        <ele>184</ele>
        <time>2025-07-17T07:57:09.071Z</time>
      </trkpt>
      <trkpt lat="44.40314" lon="1.02195">
        <ele>184</ele>
        <time>2025-07-17T07:57:13.072Z</time>
      </trkpt>
      <trkpt lat="44.40303" lon="1.0221">
        <ele>186</ele>
        <time>2025-07-17T07:57:29.071Z</time>
      </trkpt>
      <trkpt lat="44.40276" lon="1.02235">
        <ele>187</ele>
        <time>2025-07-17T07:58:01.071Z</time>
      </trkpt>
      <trkpt lat="44.4026" lon="1.02245">
        <ele>184</ele>
        <time>2025-07-17T07:58:17.071Z</time>
      </trkpt>
      <trkpt lat="44.40218" lon="1.02291">
        <ele>189</ele>
        <time>2025-07-17T07:59:05.071Z</time>
      </trkpt>
      <trkpt lat="44.40189" lon="1.02349">
        <ele>189</ele>
        <time>2025-07-17T07:59:53.071Z</time>
      </trkpt>
      <trkpt lat="44.40183" lon="1.02354">
        <ele>188</ele>
        <time>2025-07-17T08:00:01.072Z</time>
      </trkpt>
      <trkpt lat="44.40153" lon="1.02345">
        <ele>200</ele>
        <time>2025-07-17T08:00:53.071Z</time>
      </trkpt>
      <trkpt lat="44.4015" lon="1.02347">
        <ele>201</ele>
        <time>2025-07-17T08:00:57.072Z</time>
      </trkpt>
      <trkpt lat="44.40146" lon="1.02359">
        <ele>203</ele>
        <time>2025-07-17T08:01:13.071Z</time>
      </trkpt>
      <trkpt lat="44.40136" lon="1.0237">
        <ele>206</ele>
        <time>2025-07-17T08:01:29.071Z</time>
      </trkpt>
      <trkpt lat="44.40117" lon="1.02394">
        <ele>211</ele>
        <time>2025-07-17T08:01:57.071Z</time>
      </trkpt>
      <trkpt lat="44.401" lon="1.02411">
        <ele>212</ele>
        <time>2025-07-17T08:02:21.071Z</time>
      </trkpt>
      <trkpt lat="44.40089" lon="1.02425">
        <ele>213</ele>
        <time>2025-07-17T08:02:37.071Z</time>
      </trkpt>
      <trkpt lat="44.40082" lon="1.02428">
        <ele>214</ele>
        <time>2025-07-17T08:02:45.071Z</time>
      </trkpt>
      <trkpt lat="44.40062" lon="1.02442">
        <ele>219</ele>
        <time>2025-07-17T08:03:13.071Z</time>
      </trkpt>
      <trkpt lat="44.40045" lon="1.02455">
        <ele>230</ele>
        <time>2025-07-17T08:07:49.071Z</time>
      </trkpt>
      <trkpt lat="44.40043" lon="1.02459">
        <ele>229</ele>
        <time>2025-07-17T08:07:57.071Z</time>
      </trkpt>
      <trkpt lat="44.4003" lon="1.02466">
        <ele>230</ele>
        <time>2025-07-17T08:08:13.071Z</time>
      </trkpt>
      <trkpt lat="44.40011" lon="1.02482">
        <ele>234</ele>
        <time>2025-07-17T08:08:45.071Z</time>
      </trkpt>
      <trkpt lat="44.39982" lon="1.02498">
        <ele>239</ele>
        <time>2025-07-17T08:09:13.071Z</time>
      </trkpt>
      <trkpt lat="44.3998" lon="1.02501">
        <ele>239</ele>
        <time>2025-07-17T08:09:17.071Z</time>
      </trkpt>
      <trkpt lat="44.39955" lon="1.02515">
        <ele>239</ele>
        <time>2025-07-17T08:09:41.071Z</time>
      </trkpt>
      <trkpt lat="44.3994" lon="1.02513">
        <ele>238</ele>
        <time>2025-07-17T08:09:57.071Z</time>
      </trkpt>
      <trkpt lat="44.39936" lon="1.02509">
        <ele>236</ele>
        <time>2025-07-17T08:10:05.071Z</time>
      </trkpt>
      <trkpt lat="44.39933" lon="1.02493">
        <ele>232</ele>
        <time>2025-07-17T08:10:17.071Z</time>
      </trkpt>
      <trkpt lat="44.39929" lon="1.02488">
        <ele>233</ele>
        <time>2025-07-17T08:10:21.071Z</time>
      </trkpt>
      <trkpt lat="44.39917" lon="1.02487">
        <ele>237</ele>
        <time>2025-07-17T08:10:29.071Z</time>
      </trkpt>
      <trkpt lat="44.39914" lon="1.02491">
        <ele>240</ele>
        <time>2025-07-17T08:10:33.071Z</time>
      </trkpt>
      <trkpt lat="44.39908" lon="1.02492">
        <ele>241</ele>
        <time>2025-07-17T08:10:41.071Z</time>
      </trkpt>
      <trkpt lat="44.39904" lon="1.02496">
        <ele>242</ele>
        <time>2025-07-17T08:10:45.071Z</time>
      </trkpt>
      <trkpt lat="44.399" lon="1.02496">
        <ele>242</ele>
        <time>2025-07-17T08:10:49.071Z</time>
      </trkpt>
      <trkpt lat="44.39894" lon="1.02505">
        <ele>241</ele>
        <time>2025-07-17T08:10:57.071Z</time>
      </trkpt>
      <trkpt lat="44.39875" lon="1.02513">
        <ele>243</ele>
        <time>2025-07-17T08:11:13.071Z</time>
      </trkpt>
      <trkpt lat="44.3984" lon="1.02517">
        <ele>245</ele>
        <time>2025-07-17T08:11:45.071Z</time>
      </trkpt>
      <trkpt lat="44.39805" lon="1.02524">
        <ele>249</ele>
        <time>2025-07-17T08:12:17.071Z</time>
      </trkpt>
      <trkpt lat="44.39771" lon="1.02535">
        <ele>248</ele>
        <time>2025-07-17T08:12:49.072Z</time>
      </trkpt>
      <trkpt lat="44.3974" lon="1.02555">
        <ele>249</ele>
        <time>2025-07-17T08:13:21.071Z</time>
      </trkpt>
      <trkpt lat="44.39708" lon="1.02568">
        <ele>245</ele>
        <time>2025-07-17T08:13:53.071Z</time>
      </trkpt>
      <trkpt lat="44.39684" lon="1.02574">
        <ele>246</ele>
        <time>2025-07-17T08:14:17.071Z</time>
      </trkpt>
      <trkpt lat="44.39669" lon="1.02582">
        <ele>245</ele>
        <time>2025-07-17T08:14:33.071Z</time>
      </trkpt>
      <trkpt lat="44.39653" lon="1.02588">
        <ele>243</ele>
        <time>2025-07-17T08:14:49.071Z</time>
      </trkpt>
      <trkpt lat="44.39619" lon="1.02598">
        <ele>248</ele>
        <time>2025-07-17T08:17:45.071Z</time>
      </trkpt>
      <trkpt lat="44.39609" lon="1.02616">
        <ele>253</ele>
        <time>2025-07-17T08:19:09.071Z</time>
      </trkpt>
      <trkpt lat="44.39623" lon="1.0265">
        <ele>244</ele>
        <time>2025-07-17T08:19:41.071Z</time>
      </trkpt>
      <trkpt lat="44.39629" lon="1.02677">
        <ele>243</ele>
        <time>2025-07-17T08:19:57.072Z</time>
      </trkpt>
      <trkpt lat="44.3964" lon="1.02704">
        <ele>243</ele>
        <time>2025-07-17T08:20:13.071Z</time>
      </trkpt>
      <trkpt lat="44.39646" lon="1.02725">
        <ele>241</ele>
        <time>2025-07-17T08:20:29.071Z</time>
      </trkpt>
      <trkpt lat="44.39652" lon="1.02736">
        <ele>241</ele>
        <time>2025-07-17T08:20:37.072Z</time>
      </trkpt>
      <trkpt lat="44.39685" lon="1.02851">
        <ele>242</ele>
        <time>2025-07-17T08:21:41.071Z</time>
      </trkpt>
      <trkpt lat="44.39706" lon="1.02905">
        <ele>242</ele>
        <time>2025-07-17T08:22:13.072Z</time>
      </trkpt>
      <trkpt lat="44.3971" lon="1.02924">
        <ele>243</ele>
        <time>2025-07-17T08:22:25.072Z</time>
      </trkpt>
      <trkpt lat="44.39702" lon="1.02934">
        <ele>243</ele>
        <time>2025-07-17T08:22:33.072Z</time>
      </trkpt>
      <trkpt lat="44.39685" lon="1.02941">
        <ele>236</ele>
        <time>2025-07-17T08:22:49.071Z</time>
      </trkpt>
      <trkpt lat="44.39672" lon="1.0294">
        <ele>236</ele>
        <time>2025-07-17T08:23:01.071Z</time>
      </trkpt>
      <trkpt lat="44.39661" lon="1.02944">
        <ele>238</ele>
        <time>2025-07-17T08:23:13.072Z</time>
      </trkpt>
      <trkpt lat="44.39651" lon="1.02942">
        <ele>236</ele>
        <time>2025-07-17T08:23:21.071Z</time>
      </trkpt>
      <trkpt lat="44.39626" lon="1.02945">
        <ele>245</ele>
        <time>2025-07-17T08:23:37.071Z</time>
      </trkpt>
      <trkpt lat="44.39584" lon="1.02937">
        <ele>241</ele>
        <time>2025-07-17T08:24:17.071Z</time>
      </trkpt>
      <trkpt lat="44.39566" lon="1.02925">
        <ele>234</ele>
        <time>2025-07-17T08:24:33.072Z</time>
      </trkpt>
      <trkpt lat="44.39518" lon="1.02901">
        <ele>243</ele>
        <time>2025-07-17T08:25:13.072Z</time>
      </trkpt>
      <trkpt lat="44.39507" lon="1.02891">
        <ele>242</ele>
        <time>2025-07-17T08:25:21.071Z</time>
      </trkpt>
      <trkpt lat="44.39477" lon="1.02877">
        <ele>241</ele>
        <time>2025-07-17T08:25:45.071Z</time>
      </trkpt>
      <trkpt lat="44.39452" lon="1.02872">
        <ele>241</ele>
        <time>2025-07-17T08:26:09.071Z</time>
      </trkpt>
      <trkpt lat="44.39443" lon="1.02867">
        <ele>241</ele>
        <time>2025-07-17T08:26:17.071Z</time>
      </trkpt>
      <trkpt lat="44.39435" lon="1.0286">
        <ele>241</ele>
        <time>2025-07-17T08:26:25.071Z</time>
      </trkpt>
      <trkpt lat="44.39406" lon="1.02818">
        <ele>241</ele>
        <time>2025-07-17T08:27:05.071Z</time>
      </trkpt>
      <trkpt lat="44.3939" lon="1.02806">
        <ele>244</ele>
        <time>2025-07-17T08:27:21.071Z</time>
      </trkpt>
      <trkpt lat="44.39375" lon="1.02791">
        <ele>244</ele>
        <time>2025-07-17T08:27:37.071Z</time>
      </trkpt>
      <trkpt lat="44.39358" lon="1.02787">
        <ele>245</ele>
        <time>2025-07-17T08:27:53.072Z</time>
      </trkpt>
      <trkpt lat="44.39353" lon="1.02783">
        <ele>244</ele>
        <time>2025-07-17T08:27:57.071Z</time>
      </trkpt>
      <trkpt lat="44.39335" lon="1.02779">
        <ele>246</ele>
        <time>2025-07-17T08:28:13.071Z</time>
      </trkpt>
      <trkpt lat="44.3932" lon="1.02773">
        <ele>244</ele>
        <time>2025-07-17T08:28:29.071Z</time>
      </trkpt>
      <trkpt lat="44.39306" lon="1.0277">
        <ele>244</ele>
        <time>2025-07-17T08:28:41.071Z</time>
      </trkpt>
      <trkpt lat="44.39297" lon="1.02765">
        <ele>242</ele>
        <time>2025-07-17T08:28:49.071Z</time>
      </trkpt>
      <trkpt lat="44.3928" lon="1.02764">
        <ele>239</ele>
        <time>2025-07-17T08:29:05.071Z</time>
      </trkpt>
      <trkpt lat="44.39261" lon="1.02755">
        <ele>241</ele>
        <time>2025-07-17T08:29:21.071Z</time>
      </trkpt>
      <trkpt lat="44.39254" lon="1.02747">
        <ele>242</ele>
        <time>2025-07-17T08:29:29.071Z</time>
      </trkpt>
      <trkpt lat="44.39239" lon="1.02715">
        <ele>242</ele>
        <time>2025-07-17T08:29:53.071Z</time>
      </trkpt>
      <trkpt lat="44.39226" lon="1.02701">
        <ele>244</ele>
        <time>2025-07-17T08:30:09.071Z</time>
      </trkpt>
      <trkpt lat="44.39196" lon="1.02648">
        <ele>239</ele>
        <time>2025-07-17T08:30:57.071Z</time>
      </trkpt>
      <trkpt lat="44.39193" lon="1.0264">
        <ele>237</ele>
        <time>2025-07-17T08:31:07.072Z</time>
      </trkpt>
      <trkpt lat="44.39186" lon="1.02628">
        <ele>234</ele>
        <time>2025-07-17T08:31:23.071Z</time>
      </trkpt>
      <trkpt lat="44.39182" lon="1.0262">
        <ele>232</ele>
        <time>2025-07-17T08:31:31.071Z</time>
      </trkpt>
      <trkpt lat="44.39165" lon="1.02609">
        <ele>236</ele>
        <time>2025-07-17T08:31:47.071Z</time>
      </trkpt>
      <trkpt lat="44.39156" lon="1.02599">
        <ele>237</ele>
        <time>2025-07-17T08:31:55.071Z</time>
      </trkpt>
      <trkpt lat="44.39144" lon="1.02591">
        <ele>235</ele>
        <time>2025-07-17T08:32:11.071Z</time>
      </trkpt>
      <trkpt lat="44.39133" lon="1.02581">
        <ele>233</ele>
        <time>2025-07-17T08:32:23.071Z</time>
      </trkpt>
      <trkpt lat="44.39127" lon="1.02562">
        <ele>231</ele>
        <time>2025-07-17T08:32:39.071Z</time>
      </trkpt>
      <trkpt lat="44.391" lon="1.02506">
        <ele>233</ele>
        <time>2025-07-17T08:33:19.071Z</time>
      </trkpt>
      <trkpt lat="44.39098" lon="1.02496">
        <ele>233</ele>
        <time>2025-07-17T08:33:27.071Z</time>
      </trkpt>
      <trkpt lat="44.39079" lon="1.02456">
        <ele>229</ele>
        <time>2025-07-17T08:33:59.071Z</time>
      </trkpt>
      <trkpt lat="44.39076" lon="1.02444">
        <ele>226</ele>
        <time>2025-07-17T08:34:07.071Z</time>
      </trkpt>
      <trkpt lat="44.39064" lon="1.02416">
        <ele>222</ele>
        <time>2025-07-17T08:34:27.071Z</time>
      </trkpt>
      <trkpt lat="44.39037" lon="1.02358">
        <ele>223</ele>
        <time>2025-07-17T08:35:17.071Z</time>
      </trkpt>
      <trkpt lat="44.39038" lon="1.02353">
        <ele>224</ele>
        <time>2025-07-17T08:35:19.071Z</time>
      </trkpt>
      <trkpt lat="44.39034" lon="1.02349">
        <ele>223</ele>
        <time>2025-07-17T08:35:23.071Z</time>
      </trkpt>
      <trkpt lat="44.39023" lon="1.02335">
        <ele>220</ele>
        <time>2025-07-17T08:35:37.071Z</time>
      </trkpt>
      <trkpt lat="44.39013" lon="1.02317">
        <ele>217</ele>
        <time>2025-07-17T08:35:53.071Z</time>
      </trkpt>
      <trkpt lat="44.39002" lon="1.02306">
        <ele>216</ele>
        <time>2025-07-17T08:36:09.071Z</time>
      </trkpt>
      <trkpt lat="44.38999" lon="1.02305">
        <ele>215</ele>
        <time>2025-07-17T08:36:11.071Z</time>
      </trkpt>
      <trkpt lat="44.38993" lon="1.02295">
        <ele>212</ele>
        <time>2025-07-17T08:36:19.071Z</time>
      </trkpt>
      <trkpt lat="44.38987" lon="1.02289">
        <ele>213</ele>
        <time>2025-07-17T08:36:25.071Z</time>
      </trkpt>
      <trkpt lat="44.38977" lon="1.02281">
        <ele>216</ele>
        <time>2025-07-17T08:36:37.071Z</time>
      </trkpt>
      <trkpt lat="44.38966" lon="1.0225">
        <ele>218</ele>
        <time>2025-07-17T08:36:57.071Z</time>
      </trkpt>
      <trkpt lat="44.38966" lon="1.02233">
        <ele>218</ele>
        <time>2025-07-17T08:37:05.071Z</time>
      </trkpt>
      <trkpt lat="44.38967" lon="1.02216">
        <ele>216</ele>
        <time>2025-07-17T08:37:15.071Z</time>
      </trkpt>
      <trkpt lat="44.38981" lon="1.02175">
        <ele>207</ele>
        <time>2025-07-17T08:37:47.071Z</time>
      </trkpt>
      <trkpt lat="44.38987" lon="1.02165">
        <ele>203</ele>
        <time>2025-07-17T08:37:55.071Z</time>
      </trkpt>
      <trkpt lat="44.38987" lon="1.02156">
        <ele>200</ele>
        <time>2025-07-17T08:38:03.071Z</time>
      </trkpt>
      <trkpt lat="44.39002" lon="1.0212">
        <ele>197</ele>
        <time>2025-07-17T08:38:35.071Z</time>
      </trkpt>
      <trkpt lat="44.39006" lon="1.02101">
        <ele>193</ele>
        <time>2025-07-17T08:38:51.071Z</time>
      </trkpt>
      <trkpt lat="44.39003" lon="1.02051">
        <ele>193</ele>
        <time>2025-07-17T08:39:31.071Z</time>
      </trkpt>
      <trkpt lat="44.39004" lon="1.02037">
        <ele>190</ele>
        <time>2025-07-17T08:39:47.071Z</time>
      </trkpt>
      <trkpt lat="44.39002" lon="1.02037">
        <ele>190</ele>
        <time>2025-07-17T08:39:55.071Z</time>
      </trkpt>
      <trkpt lat="44.38998" lon="1.02007">
        <ele>187</ele>
        <time>2025-07-17T08:40:27.071Z</time>
      </trkpt>
      <trkpt lat="44.3899" lon="1.01968">
        <ele>188</ele>
        <time>2025-07-17T08:40:55.071Z</time>
      </trkpt>
      <trkpt lat="44.38981" lon="1.01956">
        <ele>187</ele>
        <time>2025-07-17T08:41:03.071Z</time>
      </trkpt>
      <trkpt lat="44.3897" lon="1.01934">
        <ele>184</ele>
        <time>2025-07-17T08:41:19.071Z</time>
      </trkpt>
      <trkpt lat="44.38961" lon="1.01929">
        <ele>183</ele>
        <time>2025-07-17T08:41:27.071Z</time>
      </trkpt>
      <trkpt lat="44.38948" lon="1.01921">
        <ele>187</ele>
        <time>2025-07-17T08:42:15.071Z</time>
      </trkpt>
      <trkpt lat="44.38942" lon="1.01917">
        <ele>186</ele>
        <time>2025-07-17T08:42:31.071Z</time>
      </trkpt>
      <trkpt lat="44.38938" lon="1.01904">
        <ele>183</ele>
        <time>2025-07-17T08:42:39.071Z</time>
      </trkpt>
      <trkpt lat="44.38935" lon="1.01875">
        <ele>177</ele>
        <time>2025-07-17T08:42:59.071Z</time>
      </trkpt>
      <trkpt lat="44.38916" lon="1.01867">
        <ele>178</ele>
        <time>2025-07-17T08:43:15.071Z</time>
      </trkpt>
      <trkpt lat="44.38879" lon="1.01862">
        <ele>170</ele>
        <time>2025-07-17T08:43:47.071Z</time>
      </trkpt>
      <trkpt lat="44.38875" lon="1.01859">
        <ele>170</ele>
        <time>2025-07-17T08:43:51.071Z</time>
      </trkpt>
      <trkpt lat="44.3887" lon="1.01838">
        <ele>168</ele>
        <time>2025-07-17T08:44:03.071Z</time>
      </trkpt>
      <trkpt lat="44.38887" lon="1.01825">
        <ele>166</ele>
        <time>2025-07-17T08:44:19.071Z</time>
      </trkpt>
      <trkpt lat="44.38889" lon="1.01822">
        <ele>166</ele>
        <time>2025-07-17T08:44:23.071Z</time>
      </trkpt>
      <trkpt lat="44.38922" lon="1.01803">
        <ele>163</ele>
        <time>2025-07-17T08:44:51.071Z</time>
      </trkpt>
      <trkpt lat="44.38927" lon="1.01788">
        <ele>162</ele>
        <time>2025-07-17T08:44:59.071Z</time>
      </trkpt>
      <trkpt lat="44.3894" lon="1.01767">
        <ele>164</ele>
        <time>2025-07-17T08:45:15.071Z</time>
      </trkpt>
      <trkpt lat="44.38948" lon="1.0176">
        <ele>163</ele>
        <time>2025-07-17T08:45:23.071Z</time>
      </trkpt>
      <trkpt lat="44.39023" lon="1.01669">
        <ele>153</ele>
        <time>2025-07-17T08:46:51.071Z</time>
      </trkpt>
      <trkpt lat="44.39045" lon="1.01639">
        <ele>157</ele>
        <time>2025-07-17T08:47:15.072Z</time>
      </trkpt>
      <trkpt lat="44.3911" lon="1.01596">
        <ele>153</ele>
        <time>2025-07-17T08:48:11.071Z</time>
      </trkpt>
      <trkpt lat="44.3912" lon="1.01592">
        <ele>153</ele>
        <time>2025-07-17T08:48:19.071Z</time>
      </trkpt>
      <trkpt lat="44.39157" lon="1.01563">
        <ele>153</ele>
        <time>2025-07-17T08:48:51.071Z</time>
      </trkpt>
      <trkpt lat="44.39191" lon="1.0153">
        <ele>150</ele>
        <time>2025-07-17T08:49:23.071Z</time>
      </trkpt>
      <trkpt lat="44.39315" lon="1.01471">
        <ele>158</ele>
        <time>2025-07-17T08:51:15.071Z</time>
      </trkpt>
      <trkpt lat="44.3933" lon="1.01459">
        <ele>161</ele>
        <time>2025-07-17T08:51:31.071Z</time>
      </trkpt>
      <trkpt lat="44.39342" lon="1.0144">
        <ele>164</ele>
        <time>2025-07-17T08:51:47.071Z</time>
      </trkpt>
      <trkpt lat="44.39377" lon="1.01354">
        <ele>167</ele>
        <time>2025-07-17T08:52:51.071Z</time>
      </trkpt>
      <trkpt lat="44.394" lon="1.01312">
        <ele>167</ele>
        <time>2025-07-17T08:53:23.071Z</time>
      </trkpt>
      <trkpt lat="44.39418" lon="1.01264">
        <ele>163</ele>
        <time>2025-07-17T08:53:55.071Z</time>
      </trkpt>
      <trkpt lat="44.39471" lon="1.01083">
        <ele>158</ele>
        <time>2025-07-17T08:56:03.071Z</time>
      </trkpt>
      <trkpt lat="44.3949" lon="1.01026">
        <ele>156</ele>
        <time>2025-07-17T08:56:35.071Z</time>
      </trkpt>
      <trkpt lat="44.39496" lon="1.01">
        <ele>158</ele>
        <time>2025-07-17T08:56:51.071Z</time>
      </trkpt>
      <trkpt lat="44.39506" lon="1.00975">
        <ele>158</ele>
        <time>2025-07-17T08:57:07.071Z</time>
      </trkpt>
      <trkpt lat="44.3952" lon="1.00926">
        <ele>155</ele>
        <time>2025-07-17T08:57:39.071Z</time>
      </trkpt>
      <trkpt lat="44.39524" lon="1.009">
        <ele>154</ele>
        <time>2025-07-17T08:57:55.071Z</time>
      </trkpt>
      <trkpt lat="44.39523" lon="1.00889">
        <ele>154</ele>
        <time>2025-07-17T08:58:03.071Z</time>
      </trkpt>
      <trkpt lat="44.39521" lon="1.00887">
        <ele>154</ele>
        <time>2025-07-17T08:58:11.071Z</time>
      </trkpt>
      <trkpt lat="44.39515" lon="1.00886">
        <ele>154</ele>
        <time>2025-07-17T08:58:19.071Z</time>
      </trkpt>
      <trkpt lat="44.39488" lon="1.00875">
        <ele>156</ele>
        <time>2025-07-17T08:58:43.071Z</time>
      </trkpt>
      <trkpt lat="44.39468" lon="1.00862">
        <ele>153</ele>
        <time>2025-07-17T08:58:59.071Z</time>
      </trkpt>
      <trkpt lat="44.39462" lon="1.00851">
        <ele>152</ele>
        <time>2025-07-17T08:59:07.071Z</time>
      </trkpt>
      <trkpt lat="44.39452" lon="1.00806">
        <ele>151</ele>
        <time>2025-07-17T09:00:11.071Z</time>
      </trkpt>
      <trkpt lat="44.39449" lon="1.00775">
        <ele>151</ele>
        <time>2025-07-17T09:00:43.071Z</time>
      </trkpt>
      <trkpt lat="44.3944" lon="1.0074">
        <ele>148</ele>
        <time>2025-07-17T09:01:07.071Z</time>
      </trkpt>
      <trkpt lat="44.39441" lon="1.00721">
        <ele>148</ele>
        <time>2025-07-17T09:01:23.072Z</time>
      </trkpt>
      <trkpt lat="44.39436" lon="1.00707">
        <ele>146</ele>
        <time>2025-07-17T09:01:39.071Z</time>
      </trkpt>
      <trkpt lat="44.39429" lon="1.0068">
        <ele>142</ele>
        <time>2025-07-17T09:02:59.071Z</time>
      </trkpt>
      <trkpt lat="44.39411" lon="1.00624">
        <ele>145</ele>
        <time>2025-07-17T09:04:03.071Z</time>
      </trkpt>
      <trkpt lat="44.39398" lon="1.00573">
        <ele>141</ele>
        <time>2025-07-17T09:04:35.071Z</time>
      </trkpt>
      <trkpt lat="44.39393" lon="1.00563">
        <ele>140</ele>
        <time>2025-07-17T09:04:43.071Z</time>
      </trkpt>
      <trkpt lat="44.39377" lon="1.0052">
        <ele>138</ele>
        <time>2025-07-17T09:05:15.071Z</time>
      </trkpt>
      <trkpt lat="44.39359" lon="1.00477">
        <ele>134</ele>
        <time>2025-07-17T09:05:47.071Z</time>
      </trkpt>
      <trkpt lat="44.39352" lon="1.00451">
        <ele>133</ele>
        <time>2025-07-17T09:06:03.071Z</time>
      </trkpt>
      <trkpt lat="44.39307" lon="1.00367">
        <ele>128</ele>
        <time>2025-07-17T09:07:07.071Z</time>
      </trkpt>
      <trkpt lat="44.39297" lon="1.00355">
        <ele>130</ele>
        <time>2025-07-17T09:07:19.071Z</time>
      </trkpt>
      <trkpt lat="44.39293" lon="1.00328">
        <ele>131</ele>
        <time>2025-07-17T09:07:35.071Z</time>
      </trkpt>
      <trkpt lat="44.39293" lon="1.00282">
        <ele>127</ele>
        <time>2025-07-17T09:08:07.071Z</time>
      </trkpt>
      <trkpt lat="44.39299" lon="1.00254">
        <ele>127</ele>
        <time>2025-07-17T09:08:23.071Z</time>
      </trkpt>
      <trkpt lat="44.39355" lon="1.00159">
        <ele>131</ele>
        <time>2025-07-17T09:09:27.071Z</time>
      </trkpt>
      <trkpt lat="44.39412" lon="1.00072">
        <ele>127</ele>
        <time>2025-07-17T09:10:31.071Z</time>
      </trkpt>
      <trkpt lat="44.39441" lon="1.00033">
        <ele>130</ele>
        <time>2025-07-17T09:11:03.071Z</time>
      </trkpt>
      <trkpt lat="44.39473" lon="1.00007">
        <ele>123</ele>
        <time>2025-07-17T09:11:35.071Z</time>
      </trkpt>
      <trkpt lat="44.39512" lon="0.99991">
        <ele>123</ele>
        <time>2025-07-17T09:12:39.071Z</time>
      </trkpt>
      <trkpt lat="44.39525" lon="0.99982">
        <ele>124</ele>
        <time>2025-07-17T09:12:55.071Z</time>
      </trkpt>
      <trkpt lat="44.39567" lon="0.99961">
        <ele>126</ele>
        <time>2025-07-17T09:13:27.071Z</time>
      </trkpt>
      <trkpt lat="44.39601" lon="0.99939">
        <ele>119</ele>
        <time>2025-07-17T09:13:59.071Z</time>
      </trkpt>
      <trkpt lat="44.39636" lon="0.99908">
        <ele>123</ele>
        <time>2025-07-17T09:14:39.071Z</time>
      </trkpt>
      <trkpt lat="44.39642" lon="0.99897">
        <ele>125</ele>
        <time>2025-07-17T09:14:47.071Z</time>
      </trkpt>
      <trkpt lat="44.39662" lon="0.99849">
        <ele>123</ele>
        <time>2025-07-17T09:15:19.071Z</time>
      </trkpt>
      <trkpt lat="44.39668" lon="0.99839">
        <ele>124</ele>
        <time>2025-07-17T09:15:27.071Z</time>
      </trkpt>
      <trkpt lat="44.39678" lon="0.99827">
        <ele>126</ele>
        <time>2025-07-17T09:15:43.071Z</time>
      </trkpt>
      <trkpt lat="44.39684" lon="0.99824">
        <ele>128</ele>
        <time>2025-07-17T09:15:47.072Z</time>
      </trkpt>
      <trkpt lat="44.3969" lon="0.99825">
        <ele>131</ele>
        <time>2025-07-17T09:15:55.071Z</time>
      </trkpt>
      <trkpt lat="44.39708" lon="0.99801">
        <ele>137</ele>
        <time>2025-07-17T09:16:59.071Z</time>
      </trkpt>
      <trkpt lat="44.39738" lon="0.99769">
        <ele>139</ele>
        <time>2025-07-17T09:17:47.071Z</time>
      </trkpt>
      <trkpt lat="44.39752" lon="0.99757">
        <ele>140</ele>
        <time>2025-07-17T09:18:19.071Z</time>
      </trkpt>
      <trkpt lat="44.39778" lon="0.99607">
        <ele>154</ele>
        <time>2025-07-17T09:20:59.071Z</time>
      </trkpt>
      <trkpt lat="44.3979" lon="0.99573">
        <ele>155</ele>
        <time>2025-07-17T09:21:23.071Z</time>
      </trkpt>
      <trkpt lat="44.39813" lon="0.99546">
        <ele>157</ele>
        <time>2025-07-17T09:21:55.071Z</time>
      </trkpt>
      <trkpt lat="44.39827" lon="0.99517">
        <ele>160</ele>
        <time>2025-07-17T09:22:27.071Z</time>
      </trkpt>
      <trkpt lat="44.39897" lon="0.99418">
        <ele>175</ele>
        <time>2025-07-17T09:24:15.071Z</time>
      </trkpt>
      <trkpt lat="44.39904" lon="0.99411">
        <ele>174</ele>
        <time>2025-07-17T09:24:23.071Z</time>
      </trkpt>
      <trkpt lat="44.39919" lon="0.9939">
        <ele>178</ele>
        <time>2025-07-17T09:24:47.071Z</time>
      </trkpt>
      <trkpt lat="44.39939" lon="0.99363">
        <ele>175</ele>
        <time>2025-07-17T09:25:51.071Z</time>
      </trkpt>
      <trkpt lat="44.39954" lon="0.99329">
        <ele>176</ele>
        <time>2025-07-17T09:26:19.071Z</time>
      </trkpt>
      <trkpt lat="44.39961" lon="0.99323">
        <ele>175</ele>
        <time>2025-07-17T09:26:27.071Z</time>
      </trkpt>
      <trkpt lat="44.39967" lon="0.99314">
        <ele>173</ele>
        <time>2025-07-17T09:26:35.071Z</time>
      </trkpt>
      <trkpt lat="44.39983" lon="0.99302">
        <ele>170</ele>
        <time>2025-07-17T09:26:47.071Z</time>
      </trkpt>
      <trkpt lat="44.40009" lon="0.99272">
        <ele>169</ele>
        <time>2025-07-17T09:27:19.071Z</time>
      </trkpt>
      <trkpt lat="44.40019" lon="0.99265">
        <ele>170</ele>
        <time>2025-07-17T09:27:51.071Z</time>
      </trkpt>
      <trkpt lat="44.40029" lon="0.99258">
        <ele>168</ele>
        <time>2025-07-17T09:28:03.071Z</time>
      </trkpt>
      <trkpt lat="44.4004" lon="0.99256">
        <ele>169</ele>
        <time>2025-07-17T09:28:19.071Z</time>
      </trkpt>
      <trkpt lat="44.40047" lon="0.99257">
        <ele>169</ele>
        <time>2025-07-17T09:28:27.071Z</time>
      </trkpt>
      <trkpt lat="44.40071" lon="0.99253">
        <ele>169</ele>
        <time>2025-07-17T09:28:59.071Z</time>
      </trkpt>
      <trkpt lat="44.40074" lon="0.99251">
        <ele>169</ele>
        <time>2025-07-17T09:29:07.071Z</time>
      </trkpt>
      <trkpt lat="44.40106" lon="0.993">
        <ele>181.9</ele>
        <time>2025-07-17T09:30:07.071Z</time>
      </trkpt>
      <trkpt lat="44.40118" lon="0.99303">
        <ele>184</ele>
        <time>2025-07-17T09:31:15.071Z</time>
      </trkpt>
      <trkpt lat="44.40134" lon="0.99315">
        <ele>182</ele>
        <time>2025-07-17T09:31:35.071Z</time>
      </trkpt>
      <trkpt lat="44.40148" lon="0.99337">
        <ele>181</ele>
        <time>2025-07-17T09:31:51.071Z</time>
      </trkpt>
      <trkpt lat="44.40152" lon="0.99351">
        <ele>181</ele>
        <time>2025-07-17T09:31:59.071Z</time>
      </trkpt>
      <trkpt lat="44.40153" lon="0.9938">
        <ele>182</ele>
        <time>2025-07-17T09:32:15.071Z</time>
      </trkpt>
      <trkpt lat="44.40149" lon="0.99407">
        <ele>184</ele>
        <time>2025-07-17T09:32:31.071Z</time>
      </trkpt>
      <trkpt lat="44.4014" lon="0.99441">
        <ele>186</ele>
        <time>2025-07-17T09:32:55.071Z</time>
      </trkpt>
      <trkpt lat="44.40112" lon="0.99489">
        <ele>191</ele>
        <time>2025-07-17T09:33:35.071Z</time>
      </trkpt>
      <trkpt lat="44.40099" lon="0.99505">
        <ele>192</ele>
        <time>2025-07-17T09:33:51.071Z</time>
      </trkpt>
      <trkpt lat="44.40086" lon="0.99516">
        <ele>193</ele>
        <time>2025-07-17T09:34:07.071Z</time>
      </trkpt>
      <trkpt lat="44.40072" lon="0.99534">
        <ele>198</ele>
        <time>2025-07-17T09:34:23.071Z</time>
      </trkpt>
      <trkpt lat="44.40052" lon="0.99564">
        <ele>202</ele>
        <time>2025-07-17T09:34:51.071Z</time>
      </trkpt>
      <trkpt lat="44.4005" lon="0.99563">
        <ele>203</ele>
        <time>2025-07-17T09:34:55.071Z</time>
      </trkpt>
      <trkpt lat="44.40054" lon="0.99551">
        <ele>204</ele>
        <time>2025-07-17T09:35:03.071Z</time>
      </trkpt>
      <trkpt lat="44.40056" lon="0.99536">
        <ele>206</ele>
        <time>2025-07-17T09:35:11.071Z</time>
      </trkpt>
      <trkpt lat="44.4006" lon="0.99525">
        <ele>206</ele>
        <time>2025-07-17T09:35:19.071Z</time>
      </trkpt>
      <trkpt lat="44.4006" lon="0.9952">
        <ele>206</ele>
        <time>2025-07-17T09:35:21.071Z</time>
      </trkpt>
      <trkpt lat="44.40065" lon="0.99514">
        <ele>207</ele>
        <time>2025-07-17T09:35:25.071Z</time>
      </trkpt>
      <trkpt lat="44.40065" lon="0.99505">
        <ele>207</ele>
        <time>2025-07-17T09:35:33.071Z</time>
      </trkpt>
      <trkpt lat="44.40073" lon="0.9949">
        <ele>208</ele>
        <time>2025-07-17T09:35:45.071Z</time>
      </trkpt>
      <trkpt lat="44.40079" lon="0.99468">
        <ele>209</ele>
        <time>2025-07-17T09:36:01.071Z</time>
      </trkpt>
      <trkpt lat="44.40078" lon="0.99456">
        <ele>211</ele>
        <time>2025-07-17T09:36:09.071Z</time>
      </trkpt>
      <trkpt lat="44.40085" lon="0.99408">
        <ele>207</ele>
        <time>2025-07-17T09:36:41.071Z</time>
      </trkpt>
      <trkpt lat="44.40083" lon="0.99396">
        <ele>206</ele>
        <time>2025-07-17T09:36:49.071Z</time>
      </trkpt>
      <trkpt lat="44.40068" lon="0.99379">
        <ele>211</ele>
        <time>2025-07-17T09:37:21.071Z</time>
      </trkpt>
      <trkpt lat="44.40055" lon="0.99383">
        <ele>208</ele>
        <time>2025-07-17T09:37:45.071Z</time>
      </trkpt>
      <trkpt lat="44.40046" lon="0.99389">
        <ele>212</ele>
        <time>2025-07-17T09:38:01.071Z</time>
      </trkpt>
      <trkpt lat="44.40036" lon="0.99404">
        <ele>211</ele>
        <time>2025-07-17T09:38:25.071Z</time>
      </trkpt>
      <trkpt lat="44.40035" lon="0.9941">
        <ele>212</ele>
        <time>2025-07-17T09:38:33.071Z</time>
      </trkpt>
      <trkpt lat="44.40036" lon="0.99416">
        <ele>212</ele>
        <time>2025-07-17T09:38:39.071Z</time>
      </trkpt>
      <trkpt lat="44.40042" lon="0.99427">
        <ele>214</ele>
        <time>2025-07-17T09:38:57.071Z</time>
      </trkpt>
      <trkpt lat="44.40039" lon="0.99447">
        <ele>216</ele>
        <time>2025-07-17T09:39:13.072Z</time>
      </trkpt>
      <trkpt lat="44.40042" lon="0.99452">
        <ele>216</ele>
        <time>2025-07-17T09:39:17.071Z</time>
      </trkpt>
      <trkpt lat="44.40042" lon="0.99459">
        <ele>215</ele>
        <time>2025-07-17T09:39:21.071Z</time>
      </trkpt>
      <trkpt lat="44.40037" lon="0.9947">
        <ele>213</ele>
        <time>2025-07-17T09:39:29.071Z</time>
      </trkpt>
      <trkpt lat="44.40013" lon="0.9951">
        <ele>213</ele>
        <time>2025-07-17T09:40:01.071Z</time>
      </trkpt>
      <trkpt lat="44.40008" lon="0.99521">
        <ele>214</ele>
        <time>2025-07-17T09:40:10.071Z</time>
      </trkpt>
      <trkpt lat="44.40005" lon="0.9952">
        <ele>214</ele>
        <time>2025-07-17T09:40:12.071Z</time>
      </trkpt>
      <trkpt lat="44.39998" lon="0.99544">
        <ele>213</ele>
        <time>2025-07-17T09:40:28.071Z</time>
      </trkpt>
      <trkpt lat="44.39998" lon="0.99556">
        <ele>214</ele>
        <time>2025-07-17T09:40:36.071Z</time>
      </trkpt>
      <trkpt lat="44.39997" lon="0.99567">
        <ele>215</ele>
        <time>2025-07-17T09:41:20.071Z</time>
      </trkpt>
      <trkpt lat="44.39984" lon="0.99582">
        <ele>217</ele>
        <time>2025-07-17T09:44:00.071Z</time>
      </trkpt>
      <trkpt lat="44.39978" lon="0.99583">
        <ele>215</ele>
        <time>2025-07-17T09:45:48.071Z</time>
      </trkpt>
      <trkpt lat="44.39974" lon="0.99581">
        <ele>215</ele>
        <time>2025-07-17T09:45:52.071Z</time>
      </trkpt>
      <trkpt lat="44.39972" lon="0.99579">
        <ele>216</ele>
        <time>2025-07-17T09:46:00.071Z</time>
      </trkpt>
      <trkpt lat="44.39959" lon="0.99567">
        <ele>215</ele>
        <time>2025-07-17T09:46:16.071Z</time>
      </trkpt>
      <trkpt lat="44.39952" lon="0.99565">
        <ele>216</ele>
        <time>2025-07-17T09:46:24.071Z</time>
      </trkpt>
      <trkpt lat="44.39947" lon="0.99557">
        <ele>215</ele>
        <time>2025-07-17T09:46:32.071Z</time>
      </trkpt>
      <trkpt lat="44.39931" lon="0.9955">
        <ele>214</ele>
        <time>2025-07-17T09:47:28.072Z</time>
      </trkpt>
      <trkpt lat="44.39941" lon="0.99557">
        <ele>211</ele>
        <time>2025-07-17T09:48:16.071Z</time>
      </trkpt>
      <trkpt lat="44.39943" lon="0.99561">
        <ele>213</ele>
        <time>2025-07-17T09:48:24.071Z</time>
      </trkpt>
      <trkpt lat="44.39938" lon="0.99575">
        <ele>217</ele>
        <time>2025-07-17T09:48:40.071Z</time>
      </trkpt>
      <trkpt lat="44.39926" lon="0.99594">
        <ele>214</ele>
        <time>2025-07-17T09:49:44.072Z</time>
      </trkpt>
      <trkpt lat="44.3992" lon="0.99593">
        <ele>219</ele>
        <time>2025-07-17T09:52:04.071Z</time>
      </trkpt>
      <trkpt lat="44.39912" lon="0.99587">
        <ele>215</ele>
        <time>2025-07-17T09:52:12.072Z</time>
      </trkpt>
      <trkpt lat="44.39909" lon="0.99586">
        <ele>215</ele>
        <time>2025-07-17T09:52:16.071Z</time>
      </trkpt>
      <trkpt lat="44.39898" lon="0.99594">
        <ele>214</ele>
        <time>2025-07-17T09:52:28.071Z</time>
      </trkpt>
      <trkpt lat="44.39883" lon="0.99623">
        <ele>208</ele>
        <time>2025-07-17T09:52:52.071Z</time>
      </trkpt>
      <trkpt lat="44.3988" lon="0.99635">
        <ele>206</ele>
        <time>2025-07-17T09:53:00.071Z</time>
      </trkpt>
      <trkpt lat="44.39884" lon="0.99648">
        <ele>205</ele>
        <time>2025-07-17T09:53:08.071Z</time>
      </trkpt>
      <trkpt lat="44.3989" lon="0.99656">
        <ele>201</ele>
        <time>2025-07-17T09:53:16.071Z</time>
      </trkpt>
      <trkpt lat="44.39904" lon="0.99668">
        <ele>199</ele>
        <time>2025-07-17T09:53:40.071Z</time>
      </trkpt>
      <trkpt lat="44.39918" lon="0.99688">
        <ele>200</ele>
        <time>2025-07-17T09:53:54.071Z</time>
      </trkpt>
      <trkpt lat="44.39938" lon="0.99707">
        <ele>202</ele>
        <time>2025-07-17T09:54:14.071Z</time>
      </trkpt>
      <trkpt lat="44.39939" lon="0.99714">
        <ele>204</ele>
        <time>2025-07-17T09:54:18.071Z</time>
      </trkpt>
      <trkpt lat="44.39946" lon="0.99722">
        <ele>205</ele>
        <time>2025-07-17T09:54:26.071Z</time>
      </trkpt>
      <trkpt lat="44.39954" lon="0.99725">
        <ele>204</ele>
        <time>2025-07-17T09:54:34.071Z</time>
      </trkpt>
      <trkpt lat="44.39967" lon="0.99728">
        <ele>199</ele>
        <time>2025-07-17T09:54:46.071Z</time>
      </trkpt>
      <trkpt lat="44.39987" lon="0.9972">
        <ele>200</ele>
        <time>2025-07-17T09:55:06.071Z</time>
      </trkpt>
      <trkpt lat="44.4" lon="0.99701">
        <ele>206</ele>
        <time>2025-07-17T09:55:22.072Z</time>
      </trkpt>
      <trkpt lat="44.40019" lon="0.99688">
        <ele>208</ele>
        <time>2025-07-17T09:55:38.071Z</time>
      </trkpt>
      <trkpt lat="44.40028" lon="0.99674">
        <ele>207</ele>
        <time>2025-07-17T09:55:54.071Z</time>
      </trkpt>
      <trkpt lat="44.4003" lon="0.99675">
        <ele>204</ele>
        <time>2025-07-17T09:56:10.071Z</time>
      </trkpt>
      <trkpt lat="44.40037" lon="0.99672">
        <ele>205</ele>
        <time>2025-07-17T09:56:26.071Z</time>
      </trkpt>
      <trkpt lat="44.40053" lon="0.99671">
        <ele>194.5</ele>
        <time>2025-07-17T09:57:06.071Z</time>
      </trkpt>
      <trkpt lat="44.40076" lon="0.99683">
        <ele>183.4</ele>
        <time>2025-07-17T09:57:50.071Z</time>
      </trkpt>
      <trkpt lat="44.40087" lon="0.99687">
        <ele>179.7</ele>
        <time>2025-07-17T09:58:06.071Z</time>
      </trkpt>
      <trkpt lat="44.40096" lon="0.99695">
        <ele>176.9</ele>
        <time>2025-07-17T09:58:22.071Z</time>
      </trkpt>
      <trkpt lat="44.40104" lon="0.99699">
        <ele>174.3</ele>
        <time>2025-07-17T09:58:34.071Z</time>
      </trkpt>
      <trkpt lat="44.40124" lon="0.99674">
        <ele>172</ele>
        <time>2025-07-17T09:59:06.071Z</time>
      </trkpt>
      <trkpt lat="44.40133" lon="0.9967">
        <ele>172</ele>
        <time>2025-07-17T09:59:14.071Z</time>
      </trkpt>
      <trkpt lat="44.40143" lon="0.99668">
        <ele>173</ele>
        <time>2025-07-17T09:59:22.071Z</time>
      </trkpt>
      <trkpt lat="44.40153" lon="0.99672">
        <ele>171</ele>
        <time>2025-07-17T09:59:30.071Z</time>
      </trkpt>
      <trkpt lat="44.4017" lon="0.99703">
        <ele>168.7</ele>
        <time>2025-07-17T09:59:54.071Z</time>
      </trkpt>
      <trkpt lat="44.40177" lon="0.99729">
        <ele>169</ele>
        <time>2025-07-17T10:00:18.071Z</time>
      </trkpt>
      <trkpt lat="44.40169" lon="0.9975">
        <ele>168.9</ele>
        <time>2025-07-17T10:00:32.071Z</time>
      </trkpt>
    </trkseg>
  </trk>
</gpx>